Time;durP1;ratioP1;P1;durP2;ratioP2;P2;SDS_P1;SDS_P2;PMS_P1;PMS_P2;Temp;Humidity;BMP_temperature;BMP_pressure;BME280_temperature;BME280_humidity;BME280_pressure;Samples;Min_cycle;Max_cycle;Signal;HPM_P1;HPM_P2
2022/03/01 00:00:51;;;;;;;17.83;13.90;;;;;;;0.16;77.21;102074.75;4972988;28;20251;-75
2022/03/01 00:03:18;;;;;;;19.07;13.67;;;;;;;0.10;77.54;102076.09;4972994;28;20240;-76
2022/03/01 00:05:45;;;;;;;17.87;14.90;;;;;;;0.03;76.93;102085.19;4972984;28;20204;-76
2022/03/01 00:08:11;;;;;;;20.23;13.67;;;;;;;0.07;76.89;102081.09;4972515;28;20272;-76
2022/03/01 00:10:38;;;;;;;17.20;12.67;;;;;;;0.02;77.04;102072.28;4973409;28;20216;-76
2022/03/01 00:13:07;;;;;;;14.50;12.60;;;;;;;0.01;76.43;102088.50;4973162;28;20255;-76
2022/03/01 00:15:33;;;;;;;15.17;12.33;;;;;;;0.04;75.63;102098.91;4972873;28;20242;-76
2022/03/01 00:18:00;;;;;;;14.47;11.83;;;;;;;-0.06;77.01;102087.28;4972421;28;20745;-76
2022/03/01 00:20:26;;;;;;;13.60;11.93;;;;;;;-0.06;76.63;102075.34;4973063;28;20211;-76
2022/03/01 00:22:53;;;;;;;14.70;12.43;;;;;;;-0.02;76.86;102072.13;4972560;28;20204;-76
2022/03/01 00:25:19;;;;;;;18.03;12.60;;;;;;;-0.04;76.72;102075.41;4972954;28;20256;-76
2022/03/01 00:27:46;;;;;;;13.70;11.93;;;;;;;-0.07;76.73;102073.56;4972870;28;20279;-73
2022/03/01 00:30:14;;;;;;;14.30;11.07;;;;;;;-0.12;77.15;102081.84;4972630;28;20205;-76
2022/03/01 00:32:40;;;;;;;13.17;11.57;;;;;;;-0.09;76.96;102082.88;4953465;28;20256;-76
2022/03/01 00:35:07;;;;;;;15.63;11.93;;;;;;;-0.15;77.18;102080.00;4953328;28;20230;-76
2022/03/01 00:37:34;;;;;;;15.97;12.17;;;;;;;-0.19;77.43;102075.53;4953166;28;20233;-76
2022/03/01 00:40:00;;;;;;;15.70;12.73;;;;;;;-0.16;76.66;102072.22;4953501;28;20683;-76
2022/03/01 00:42:26;;;;;;;14.50;12.70;;;;;;;-0.27;77.36;102067.44;4953311;28;20252;-76
2022/03/01 00:44:53;;;;;;;16.47;11.97;;;;;;;-0.21;77.05;102060.03;4956702;28;20205;-76
2022/03/01 00:47:20;;;;;;;16.60;12.00;;;;;;;-0.26;76.37;102068.31;4956913;28;20230;-76
2022/03/01 00:49:47;;;;;;;14.20;11.70;;;;;;;-0.21;76.54;102077.13;4956750;28;20221;-76
2022/03/01 00:52:13;;;;;;;18.80;13.03;;;;;;;-0.24;76.02;102088.13;4957182;28;20208;-76
2022/03/01 00:54:40;;;;;;;12.17;10.90;;;;;;;-0.32;76.92;102079.13;4956757;28;20335;-75
2022/03/01 00:57:06;;;;;;;16.03;13.33;;;;;;;-0.29;76.04;102081.00;4956656;28;20234;-74
2022/03/01 00:59:33;;;;;;;14.67;11.10;;;;;;;-0.32;75.69;102101.34;4969757;28;20258;-76
2022/03/01 01:01:59;;;;;;;12.40;11.00;;;;;;;-0.27;76.07;102090.53;4976018;28;20204;-76
2022/03/01 01:04:27;;;;;;;12.70;10.70;;;;;;;-0.24;76.26;102089.78;4975642;28;20205;-76
2022/03/01 01:06:53;;;;;;;12.37;10.80;;;;;;;-0.27;76.29;102093.09;4976112;28;20228;-76
2022/03/01 01:09:20;;;;;;;15.83;11.20;;;;;;;-0.33;76.56;102089.34;4976051;28;20209;-76
2022/03/01 01:11:46;;;;;;;11.93;9.83;;;;;;;-0.38;76.26;102080.50;4975721;28;20211;-77
2022/03/01 01:14:13;;;;;;;12.03;10.27;;;;;;;-0.39;76.87;102066.81;4975603;28;20211;-76
2022/03/01 01:16:39;;;;;;;11.70;8.87;;;;;;;-0.47;76.86;102056.13;4975679;28;20232;-76
2022/03/01 01:19:05;;;;;;;10.13;8.83;;;;;;;-0.46;77.50;102050.19;4975898;28;20352;-76
2022/03/01 01:24:14;;;;;;;10.67;8.37;;;;;;;-0.43;77.01;102059.75;4974916;28;20299;-76
2022/03/01 01:26:40;;;;;;;14.07;8.03;;;;;;;-0.45;76.84;102053.66;4975501;28;20264;-76
2022/03/01 01:29:07;;;;;;;10.60;7.03;;;;;;;-0.49;76.96;102057.75;4975708;28;20255;-76
2022/03/01 01:31:33;;;;;;;8.80;6.70;;;;;;;-0.47;76.86;102065.53;4975637;28;20430;-76
2022/03/01 01:34:00;;;;;;;11.13;7.43;;;;;;;-0.53;76.57;102068.66;4975539;28;20212;-76
2022/03/01 01:36:27;;;;;;;9.40;7.10;;;;;;;-0.48;76.49;102056.06;4975313;28;20229;-76
2022/03/01 01:38:54;;;;;;;7.73;6.93;;;;;;;-0.51;76.71;102055.91;4975530;28;20229;-77
2022/03/01 01:41:21;;;;;;;8.63;6.67;;;;;;;-0.51;76.81;102061.91;4975304;28;20218;-76
2022/03/01 01:43:47;;;;;;;10.47;6.93;;;;;;;-0.46;76.34;102057.88;4975505;28;20198;-76
2022/03/01 01:46:14;;;;;;;8.67;6.40;;;;;;;-0.46;74.65;102068.16;4975130;28;20546;-76
2022/03/01 01:48:40;;;;;;;8.23;6.23;;;;;;;-0.47;75.51;102078.34;4975142;28;20261;-75
2022/03/01 01:51:07;;;;;;;7.73;6.23;;;;;;;-0.51;76.03;102079.00;4975089;28;20212;-76
2022/03/01 01:53:33;;;;;;;8.00;6.23;;;;;;;-0.44;75.78;102069.13;4975004;28;20209;-76
2022/03/01 01:56:01;;;;;;;7.93;6.43;;;;;;;-0.42;75.76;102077.78;4974427;28;20227;-76
2022/03/01 01:58:27;;;;;;;6.90;6.17;;;;;;;-0.45;74.86;102087.00;4974853;28;20304;-76
2022/03/01 02:00:54;;;;;;;8.90;6.90;;;;;;;-0.45;74.41;102103.28;4974625;28;20252;-76
2022/03/01 02:03:20;;;;;;;8.03;5.97;;;;;;;-0.56;74.15;102106.94;4975199;28;20212;-75
2022/03/01 02:05:47;;;;;;;10.50;6.10;;;;;;;-0.56;74.41;102111.19;4974724;28;20259;-76
2022/03/01 02:08:13;;;;;;;7.03;6.30;;;;;;;-0.48;74.35;102112.47;4975039;28;20279;-76
2022/03/01 02:10:40;;;;;;;6.97;6.17;;;;;;;-0.52;74.84;102115.69;4974974;28;20212;-76
2022/03/01 02:13:07;;;;;;;7.80;6.03;;;;;;;-0.56;73.64;102126.59;4974639;28;20619;-75
2022/03/01 02:15:36;;;;;;;9.20;5.90;;;;;;;-0.51;72.62;102151.69;4974338;28;20767;-76
2022/03/01 02:18:04;;;;;;;8.00;6.33;;;;;;;-0.46;73.93;102150.22;4974526;28;20247;-76
2022/03/01 02:20:32;;;;;;;7.70;6.70;;;;;;;-0.39;73.46;102130.06;4974725;28;20244;-75
2022/03/01 02:22:58;;;;;;;8.37;6.87;;;;;;;-0.35;73.96;102127.72;4974710;28;20232;-75
2022/03/01 02:25:25;;;;;;;8.70;6.87;;;;;;;-0.34;74.18;102124.34;4974284;28;20684;-76
2022/03/01 02:27:51;;;;;;;7.17;6.17;;;;;;;-0.39;73.97;102112.09;4974624;28;20236;-76
2022/03/01 02:30:18;;;;;;;8.07;6.90;;;;;;;-0.42;74.02;102111.13;4974575;28;20237;-76
2022/03/01 02:32:44;;;;;;;6.83;5.97;;;;;;;-0.38;74.20;102108.72;4974338;28;20278;-75
2022/03/01 02:35:12;;;;;;;9.47;7.10;;;;;;;-0.39;72.84;102112.97;4974008;28;20209;-75
2022/03/01 02:37:40;;;;;;;9.10;7.43;;;;;;;-0.37;73.37;102123.31;4974196;28;20224;-76
2022/03/01 02:40:08;;;;;;;8.33;6.63;;;;;;;-0.30;72.82;102122.81;4974268;28;20209;-76
2022/03/01 02:42:34;;;;;;;8.23;7.20;;;;;;;-0.28;72.02;102144.31;4973905;28;20641;-76
2022/03/01 02:45:01;;;;;;;11.97;8.13;;;;;;;-0.28;71.59;102149.44;4974131;28;20270;-75
2022/03/01 02:47:27;;;;;;;10.17;7.23;;;;;;;-0.25;72.27;102152.19;4974273;28;20283;-76
2022/03/01 02:49:54;;;;;;;8.50;7.50;;;;;;;-0.22;72.42;102142.97;4974059;28;20574;-75
2022/03/01 02:52:20;;;;;;;7.63;6.63;;;;;;;-0.22;72.98;102129.25;4974225;28;20265;-76
2022/03/01 02:54:48;;;;;;;8.20;7.30;;;;;;;-0.24;72.50;102121.47;4974040;28;20208;-76
2022/03/01 02:57:15;;;;;;;9.20;7.90;;;;;;;-0.25;72.76;102135.09;4973694;28;20236;-76
2022/03/01 02:59:42;;;;;;;9.93;8.13;;;;;;;-0.20;72.77;102122.50;4973901;28;20204;-76
2022/03/01 03:02:12;;;;;;;8.47;6.80;;;;;;;-0.26;71.75;102123.09;4973949;28;20212;-76
2022/03/01 03:04:38;;;;;;;9.57;8.20;;;;;;;-0.28;71.75;102142.66;4973766;28;20216;-76
2022/03/01 03:07:05;;;;;;;11.20;8.67;;;;;;;-0.34;71.22;102144.88;4972883;28;20709;-75
2022/03/01 03:09:31;;;;;;;9.90;8.10;;;;;;;-0.33;71.55;102151.78;4973607;28;20212;-76
2022/03/01 03:11:59;;;;;;;10.40;9.00;;;;;;;-0.24;70.86;102164.19;4973553;28;20271;-76
2022/03/01 03:14:25;;;;;;;13.20;9.47;;;;;;;-0.22;71.00;102166.06;4973681;28;20262;-76
2022/03/01 03:16:52;;;;;;;10.20;8.33;;;;;;;-0.21;71.36;102161.81;4973575;28;20287;-75
2022/03/01 03:19:19;;;;;;;16.93;9.60;;;;;;;-0.14;70.05;102174.19;4973645;28;20285;-76
2022/03/01 03:21:46;;;;;;;12.50;9.40;;;;;;;-0.14;69.96;102201.50;4973670;28;20208;-75
2022/03/01 03:24:12;;;;;;;10.80;9.53;;;;;;;-0.10;70.02;102208.56;4973504;28;20204;-75
2022/03/01 03:26:39;;;;;;;12.47;10.13;;;;;;;-0.10;69.83;102213.69;4973152;28;20231;-76
2022/03/01 03:29:08;;;;;;;11.63;9.60;;;;;;;-0.09;69.44;102203.50;4973251;28;20213;-76
2022/03/01 03:31:36;;;;;;;14.13;9.93;;;;;;;0.01;69.10;102225.44;4973240;28;20201;-75
2022/03/01 03:34:03;;;;;;;11.53;9.77;;;;;;;0.04;68.69;102223.03;4973738;28;20696;-76
2022/03/01 03:36:29;;;;;;;13.00;10.23;;;;;;;0.02;68.46;102234.91;4973106;28;20234;-76
2022/03/01 03:38:56;;;;;;;11.50;9.87;;;;;;;0.06;67.85;102249.66;4973359;28;20235;-75
2022/03/01 03:41:22;;;;;;;12.40;10.30;;;;;;;0.17;68.75;102250.22;4973579;28;20209;-75
2022/03/01 03:43:49;;;;;;;13.20;10.10;;;;;;;0.15;68.46;102259.53;4973348;28;20817;-75
2022/03/01 03:46:17;;;;;;;14.17;10.37;;;;;;;0.16;67.40;102267.31;4973194;28;20267;-76
2022/03/01 03:48:43;;;;;;;12.90;11.00;;;;;;;0.21;68.96;102249.56;4973556;28;20232;-76
2022/03/01 03:51:10;;;;;;;11.50;10.30;;;;;;;0.20;68.70;102240.13;4973353;28;20247;-76
2022/03/01 03:53:36;;;;;;;13.53;10.10;;;;;;;0.21;69.21;102238.44;4973410;28;20212;-75
2022/03/01 03:56:03;;;;;;;12.37;10.20;;;;;;;0.17;68.90;102230.56;4973195;28;20271;-75
2022/03/01 03:58:29;;;;;;;12.17;9.63;;;;;;;0.14;68.11;102222.72;4972773;28;20232;-77
2022/03/01 04:00:56;;;;;;;11.97;9.93;;;;;;;0.16;68.64;102233.94;4973306;28;20273;-75
2022/03/01 04:03:24;;;;;;;14.47;10.77;;;;;;;0.21;68.20;102248.69;4972677;28;20242;-76
2022/03/01 04:05:50;;;;;;;14.00;10.93;;;;;;;0.21;68.00;102264.13;4972851;28;20222;-76
2022/03/01 04:08:17;;;;;;;11.33;10.13;;;;;;;0.25;68.35;102248.94;4972872;28;20266;-76
2022/03/01 04:10:44;;;;;;;11.67;10.40;;;;;;;0.24;68.87;102244.63;4973052;28;20259;-76
2022/03/01 04:13:11;;;;;;;13.43;10.07;;;;;;;0.26;68.46;102240.44;4972900;28;20216;-76
2022/03/01 04:15:38;;;;;;;10.93;8.93;;;;;;;0.28;69.77;102233.69;4973047;28;20202;-76
2022/03/01 04:18:04;;;;;;;12.63;10.70;;;;;;;0.28;68.53;102230.22;4974949;28;20284;-76
2022/03/01 04:20:33;;;;;;;11.57;10.37;;;;;;;0.12;68.00;102246.50;4976947;28;20212;-76
2022/03/01 04:22:59;;;;;;;15.47;10.67;;;;;;;0.08;68.25;102244.59;4976643;28;20259;-76
2022/03/01 04:25:26;;;;;;;12.10;9.67;;;;;;;0.01;69.16;102230.56;4976630;28;20748;-76
2022/03/01 04:27:53;;;;;;;12.37;10.17;;;;;;;0.07;68.54;102253.97;4976757;28;20229;-76
2022/03/01 04:30:19;;;;;;;12.03;10.77;;;;;;;0.10;69.07;102243.91;4974088;28;20205;-76
2022/03/01 04:32:46;;;;;;;12.27;9.80;;;;;;;0.12;70.07;102216.63;4976165;28;20670;-76
2022/03/01 04:35:13;;;;;;;10.90;9.70;;;;;;;0.10;70.92;102199.34;4976649;28;20297;-76
2022/03/01 04:37:43;;;;;;;11.40;9.80;;;;;;;0.12;70.37;102198.63;4976367;28;20229;-74
2022/03/01 04:40:12;;;;;;;12.50;9.70;;;;;;;0.04;70.94;102196.47;4976815;28;20208;-76
2022/03/01 04:42:38;;;;;;;12.50;9.33;;;;;;;-0.01;71.37;102185.97;4977054;28;20274;-76
2022/03/01 04:45:06;;;;;;;11.00;9.90;;;;;;;-0.06;71.84;102167.75;4978382;28;20209;-75
2022/03/01 04:47:33;;;;;;;10.73;9.63;;;;;;;-0.15;71.92;102168.97;4978648;28;20228;-76
2022/03/01 04:50:00;;;;;;;12.57;9.33;;;;;;;-0.18;72.74;102156.81;4979014;28;20304;-76
2022/03/01 04:52:26;;;;;;;13.10;9.93;;;;;;;-0.25;72.35;102149.63;4976084;28;20679;-76
2022/03/01 04:54:54;;;;;;;14.87;9.97;;;;;;;-0.30;73.48;102136.53;4976110;28;20209;-76
2022/03/01 04:57:20;;;;;;;9.90;8.90;;;;;;;-0.41;73.72;102123.16;4975919;28;20776;-76
2022/03/01 04:59:47;;;;;;;14.10;10.40;;;;;;;-0.37;73.48;102107.94;4976082;28;20213;-75
2022/03/01 05:02:13;;;;;;;11.60;9.53;;;;;;;-0.35;74.08;102114.03;4975926;28;20210;-76
2022/03/01 05:04:40;;;;;;;10.97;9.87;;;;;;;-0.40;73.99;102103.50;4975983;28;20220;-76
2022/03/01 05:07:06;;;;;;;10.93;9.17;;;;;;;-0.38;74.25;102096.75;4976095;28;20579;-75
2022/03/01 05:09:33;;;;;;;11.43;9.30;;;;;;;-0.34;74.55;102097.81;4976012;28;20247;-75
2022/03/01 05:12:01;;;;;;;9.80;8.80;;;;;;;-0.35;74.21;102086.69;4976171;28;20247;-76
2022/03/01 05:14:27;;;;;;;10.60;9.50;;;;;;;-0.36;74.06;102102.84;4975464;28;20209;-76
2022/03/01 05:16:54;;;;;;;13.73;10.17;;;;;;;-0.41;74.09;102099.19;4975809;28;20291;-76
2022/03/01 05:19:20;;;;;;;10.83;9.37;;;;;;;-0.47;73.86;102091.19;4975602;28;20285;-76
2022/03/01 05:21:47;;;;;;;12.00;9.40;;;;;;;-0.51;74.64;102096.94;4975867;28;20213;-76
2022/03/01 05:24:14;;;;;;;11.07;9.50;;;;;;;-0.45;74.11;102092.13;4975610;28;20633;-76
2022/03/01 05:26:40;;;;;;;10.60;9.53;;;;;;;-0.51;73.94;102096.94;4975396;28;20204;-76
2022/03/01 05:29:09;;;;;;;12.07;9.70;;;;;;;-0.51;74.36;102086.69;4974420;28;20212;-75
2022/03/01 05:31:35;;;;;;;12.23;9.67;;;;;;;-0.55;74.21;102079.63;4975564;28;20202;-76
2022/03/01 05:34:02;;;;;;;10.97;9.10;;;;;;;-0.56;74.65;102089.00;4975512;28;20212;-76
2022/03/01 05:36:28;;;;;;;12.17;9.30;;;;;;;-0.51;74.32;102091.81;4975432;28;20223;-76
2022/03/01 05:38:55;;;;;;;11.57;9.63;;;;;;;-0.50;73.96;102091.00;4975596;28;20225;-76
2022/03/01 05:41:21;;;;;;;11.67;9.30;;;;;;;-0.49;74.01;102097.91;4975341;28;20613;-76
2022/03/01 05:43:48;;;;;;;11.60;9.63;;;;;;;-0.51;74.26;102099.50;4993765;22;20366;-80
2022/03/01 05:46:16;;;;;;;11.57;9.37;;;;;;;-0.54;74.20;102092.50;4984220;28;20232;-81
2022/03/01 05:48:42;;;;;;;12.73;10.13;;;;;;;-0.61;72.71;102105.84;4976769;28;20269;-81
2022/03/01 05:51:08;;;;;;;13.07;9.90;;;;;;;-0.58;73.73;102112.78;4976746;28;20209;-79
2022/03/01 05:53:35;;;;;;;12.37;9.37;;;;;;;-0.58;73.60;102103.41;4977318;28;20234;-80
2022/03/01 05:56:01;;;;;;;12.73;10.13;;;;;;;-0.52;73.60;102103.72;4976451;28;20216;-81
2022/03/01 05:58:28;;;;;;;13.23;10.00;;;;;;;-0.55;73.84;102111.28;4982813;28;20278;-79
2022/03/01 06:00:54;;;;;;;10.63;9.37;;;;;;;-0.52;73.77;102106.31;4997704;28;20224;-82
2022/03/01 06:03:22;;;;;;;10.70;9.60;;;;;;;-0.56;73.61;102117.19;5013986;28;20224;-81
2022/03/01 06:05:48;;;;;;;13.30;9.73;;;;;;;-0.62;73.37;102127.13;4999768;28;20250;-82
2022/03/01 06:08:15;;;;;;;13.70;10.07;;;;;;;-0.64;73.29;102123.59;4984429;28;20224;-82
2022/03/01 06:10:41;;;;;;;13.97;10.57;;;;;;;-0.60;73.67;102108.44;4986570;28;20203;-81
2022/03/01 06:13:07;;;;;;;10.80;9.70;;;;;;;-0.62;74.03;102099.78;4988298;28;20285;-81
2022/03/01 06:15:34;;;;;;;11.07;9.53;;;;;;;-0.60;74.45;102087.94;4983848;28;20197;-82
2022/03/01 06:18:00;;;;;;;11.60;10.13;;;;;;;-0.58;74.11;102098.28;4982645;28;20231;-82
2022/03/01 06:20:28;;;;;;;10.77;9.67;;;;;;;-0.54;70.89;102123.28;4982561;28;20793;-79
2022/03/01 06:22:55;;;;;;;11.50;9.40;;;;;;;-0.47;71.02;102175.81;4985347;28;20283;-82
2022/03/01 06:25:22;;;;;;;12.37;10.07;;;;;;;-0.42;71.00;102169.22;4982538;28;20716;-82
2022/03/01 06:27:48;;;;;;;11.90;9.97;;;;;;;-0.41;70.73;102181.28;4983991;28;20270;-82
2022/03/01 06:30:14;;;;;;;13.37;10.47;;;;;;;-0.35;71.17;102183.28;4983785;28;20205;-80
2022/03/01 06:32:41;;;;;;;12.63;9.77;;;;;;;-0.34;69.96;102214.13;4982446;28;20203;-82
2022/03/01 06:35:08;;;;;;;11.43;9.33;;;;;;;-0.32;70.54;102194.59;4982537;28;20202;-81
2022/03/01 06:37:36;;;;;;;13.43;10.53;;;;;;;-0.26;70.03;102204.28;4983384;28;20222;-81
2022/03/01 06:40:06;;;;;;;9.93;8.93;;;;;;;-0.30;67.89;102263.94;4985519;28;20290;-81
2022/03/01 06:42:32;;;;;;;10.83;9.40;;;;;;;-0.32;70.34;102262.97;4988039;28;20200;-81
2022/03/01 06:44:59;;;;;;;10.83;9.73;;;;;;;-0.29;70.86;102215.28;4983707;28;20208;-80
2022/03/01 06:47:25;;;;;;;14.50;9.83;;;;;;;-0.32;70.33;102225.38;4982234;28;20220;-80
2022/03/01 06:49:52;;;;;;;11.33;9.83;;;;;;;-0.26;72.44;102184.69;4983598;28;20239;-80
2022/03/01 06:52:18;;;;;;;12.20;9.47;;;;;;;-0.21;73.27;102148.97;4983651;28;20209;-81
2022/03/01 06:54:46;;;;;;;11.80;9.47;;;;;;;-0.20;74.42;102130.19;4981389;28;20279;-82
2022/03/01 06:57:12;;;;;;;10.67;9.33;;;;;;;-0.15;74.62;102108.25;4983686;28;20199;-82
2022/03/01 06:59:39;;;;;;;12.37;9.80;;;;;;;-0.19;74.60;102113.16;4983893;28;20697;-82
2022/03/01 07:02:05;;;;;;;10.73;9.53;;;;;;;-0.21;73.93;102119.06;4982855;28;20279;-82
2022/03/01 07:04:31;;;;;;;12.67;9.87;;;;;;;-0.17;72.48;102142.34;4983547;28;20216;-81
2022/03/01 07:06:58;;;;;;;12.40;9.17;;;;;;;-0.14;71.00;102184.44;4983200;28;20224;-81
2022/03/01 07:09:24;;;;;;;12.83;9.80;;;;;;;-0.05;70.02;102225.97;4984209;28;20263;-82
2022/03/01 07:11:52;;;;;;;10.97;9.67;;;;;;;0.04;69.24;102242.66;4988679;28;20196;-81
2022/03/01 07:14:20;;;;;;;12.07;9.37;;;;;;;0.16;68.91;102254.47;4988689;28;20217;-81
2022/03/01 07:16:46;;;;;;;10.17;8.77;;;;;;;0.26;66.30;102293.47;4988731;28;20686;-79
2022/03/01 07:19:12;;;;;;;10.13;9.07;;;;;;;0.42;67.47;102300.28;4989952;28;20737;-79
2022/03/01 07:21:39;;;;;;;10.83;8.93;;;;;;;0.39;68.04;102298.47;4988050;28;20202;-79
2022/03/01 07:24:06;;;;;;;10.13;9.03;;;;;;;0.48;66.18;102300.66;4996001;28;20231;-81
2022/03/01 07:26:32;;;;;;;10.97;9.87;;;;;;;0.47;68.09;102283.44;4987184;28;20779;-81
2022/03/01 07:29:00;;;;;;;12.50;10.07;;;;;;;0.48;67.66;102283.53;4991383;28;20616;-79
2022/03/01 07:31:26;;;;;;;13.23;9.43;;;;;;;0.54;66.93;102285.53;4988647;28;20208;-77
2022/03/01 07:33:53;;;;;;;10.40;9.17;;;;;;;0.59;65.93;102336.38;4977534;28;20315;-79
2022/03/01 07:36:19;;;;;;;9.93;8.93;;;;;;;0.68;64.34;102387.38;4976039;28;20231;-79
2022/03/01 07:38:46;;;;;;;10.37;9.20;;;;;;;0.73;62.56;102437.34;4975815;28;20204;-78
2022/03/01 07:41:12;;;;;;;10.53;9.37;;;;;;;0.84;60.86;102480.72;4996830;28;20258;-79
2022/03/01 07:43:39;;;;;;;10.13;9.03;;;;;;;0.92;63.28;102475.16;4985725;28;20229;-79
2022/03/01 07:46:11;;;;;;;11.17;9.33;;;;;;;0.93;61.59;102474.38;4974752;28;20700;-79
2022/03/01 07:48:38;;;;;;;10.77;8.63;;;;;;;0.99;64.93;102440.38;4975541;28;20730;-79
2022/03/01 07:51:04;;;;;;;10.63;8.63;;;;;;;1.06;64.47;102375.59;4987339;28;20767;-79
2022/03/01 07:53:31;;;;;;;9.83;8.70;;;;;;;1.06;67.54;102338.72;4990769;28;20726;-78
2022/03/01 07:55:57;;;;;;;11.03;9.13;;;;;;;1.01;65.93;102315.34;4993984;28;20207;-76
2022/03/01 07:58:23;;;;;;;12.73;9.00;;;;;;;1.11;63.72;102352.69;4998099;28;20353;-77
2022/03/01 08:00:50;;;;;;;9.13;8.23;;;;;;;1.13;63.82;102381.94;5004151;28;20355;-77
2022/03/01 08:03:17;;;;;;;8.97;7.97;;;;;;;1.22;60.76;102467.31;5011075;28;20721;-77
2022/03/01 08:05:45;;;;;;;10.43;8.23;;;;;;;1.35;59.92;102528.88;5010669;28;20204;-77
2022/03/01 08:08:11;;;;;;;10.50;9.27;;;;;;;1.45;58.96;102544.78;5011374;28;20318;-77
2022/03/01 08:10:37;;;;;;;11.50;8.83;;;;;;;1.49;58.84;102560.50;5007652;28;20209;-75
2022/03/01 08:13:04;;;;;;;10.63;9.45;;;;;;;1.55;59.55;102550.50;5006228;28;20877;-77
2022/03/01 08:15:30;;;;;;;10.87;8.70;;;;;;;1.58;58.02;102583.25;5010708;28;20747;-75
2022/03/01 08:17:59;;;;;;;10.63;7.73;;;;;;;1.73;59.03;102567.72;5010996;28;20673;-77
2022/03/01 08:20:28;;;;;;;13.10;9.47;;;;;;;1.72;58.66;102558.22;5010657;28;20771;-76
2022/03/01 08:22:54;;;;;;;11.77;9.67;;;;;;;1.78;60.42;102535.34;5011519;28;20230;-77
2022/03/01 08:25:21;;;;;;;9.73;8.73;;;;;;;1.77;58.44;102590.25;5011045;28;20211;-78
2022/03/01 08:27:47;;;;;;;11.97;8.77;;;;;;;1.78;59.14;102595.47;5010700;28;20223;-77
2022/03/01 08:30:14;;;;;;;11.63;10.63;;;;;;;1.84;58.62;102587.16;5010687;28;20489;-76
2022/03/01 08:32:40;;;;;;;12.50;9.27;;;;;;;1.91;56.44;102663.94;5010182;28;20742;-77
2022/03/01 08:35:07;;;;;;;9.03;8.10;;;;;;;2.04;57.27;102674.88;5012219;28;20259;-77
2022/03/01 08:37:35;;;;;;;11.30;9.43;;;;;;;2.04;57.99;102646.53;5011299;28;20208;-77
2022/03/01 08:40:01;;;;;;;9.30;8.30;;;;;;;2.04;57.09;102675.75;5011503;28;20778;-76
2022/03/01 08:42:28;;;;;;;14.13;8.97;;;;;;;2.11;56.98;102683.00;5000173;28;20269;-77
2022/03/01 08:44:54;;;;;;;9.63;8.63;;;;;;;2.24;57.40;102651.03;4992461;28;20240;-78
2022/03/01 08:47:21;;;;;;;10.70;8.63;;;;;;;2.26;54.64;102707.78;4992062;28;20229;-78
2022/03/01 08:49:47;;;;;;;14.57;8.53;;;;;;;2.31;54.95;102740.72;4993251;28;20300;-78
2022/03/01 08:52:14;;;;;;;9.70;8.70;;;;;;;2.35;55.98;102724.63;4992620;28;20686;-77
2022/03/01 08:54:42;;;;;;;10.77;9.40;;;;;;;2.38;55.84;102726.50;4992562;28;20751;-78
2022/03/01 08:57:09;;;;;;;10.00;9.10;;;;;;;2.46;55.05;102738.06;4992648;28;20635;-78
2022/03/01 08:59:35;;;;;;;9.27;8.37;;;;;;;2.45;55.58;102714.78;4992412;28;20208;-78
2022/03/01 09:02:02;;;;;;;9.63;8.63;;;;;;;2.47;54.83;102757.88;4989347;28;20205;-77
2022/03/01 09:04:28;;;;;;;9.70;8.57;;;;;;;2.48;54.71;102746.75;4983649;28;20274;-78
2022/03/01 09:06:54;;;;;;;9.23;8.33;;;;;;;2.50;55.60;102758.03;4985526;28;20252;-78
2022/03/01 09:09:21;;;;;;;9.23;8.30;;;;;;;2.53;56.46;102709.19;4987901;28;20236;-80
2022/03/01 09:11:49;;;;;;;9.90;8.90;;;;;;;2.58;54.86;102740.41;4989916;28;20247;-79
2022/03/01 09:14:15;;;;;;;10.03;8.80;;;;;;;2.63;55.74;102707.09;4996309;28;20230;-79
2022/03/01 09:16:41;;;;;;;10.47;9.37;;;;;;;2.66;56.10;102705.56;4995559;28;20203;-80
2022/03/01 09:19:10;;;;;;;11.23;8.77;;;;;;;2.73;57.47;102704.16;4996314;28;20686;-79
2022/03/01 09:21:37;;;;;;;9.20;8.20;;;;;;;2.82;56.14;102672.81;4996153;28;20255;-78
2022/03/01 09:24:03;;;;;;;9.27;8.27;;;;;;;2.88;55.77;102675.69;4996119;28;20228;-77
2022/03/01 09:26:30;;;;;;;10.67;8.80;;;;;;;3.03;54.84;102688.41;4995102;28;20210;-77
2022/03/01 09:28:58;;;;;;;9.37;8.47;;;;;;;3.07;54.31;102726.47;4995946;28;20770;-80
2022/03/01 09:31:24;;;;;;;9.63;8.63;;;;;;;3.13;52.44;102768.03;4996845;28;20203;-78
2022/03/01 09:33:58;;;;;;;8.53;7.57;;;;;;;3.23;53.17;102767.72;4996665;28;20713;-79
2022/03/01 09:36:25;;;;;;;9.80;8.57;;;;;;;3.28;52.87;102776.53;4996161;28;20209;-77
2022/03/01 09:38:51;;;;;;;9.53;8.07;;;;;;;3.33;52.97;102762.19;4995712;28;20264;-78
2022/03/01 09:41:18;;;;;;;9.63;7.77;;;;;;;3.42;52.79;102787.53;5003823;28;20213;-78
2022/03/01 09:43:44;;;;;;;8.57;7.67;;;;;;;3.50;53.32;102803.41;5014029;28;20964;-79
2022/03/01 09:46:12;;;;;;;8.87;7.97;;;;;;;3.45;50.92;102818.69;5014300;28;20635;-80
2022/03/01 09:48:39;;;;;;;10.30;8.17;;;;;;;3.50;51.77;102836.97;5014485;28;20227;-79
2022/03/01 09:51:08;;;;;;;9.73;8.33;;;;;;;3.48;51.38;102829.13;5016820;28;20203;-81
2022/03/01 09:53:35;;;;;;;8.97;8.07;;;;;;;3.51;50.47;102834.47;5016144;28;20756;-79
2022/03/01 09:56:04;;;;;;;9.73;8.73;;;;;;;3.60;50.31;102892.53;5014525;28;20207;-79
2022/03/01 09:58:30;;;;;;;8.93;8.00;;;;;;;3.65;49.93;102901.38;5014199;28;20604;-77
2022/03/01 10:01:00;;;;;;;10.13;8.70;;;;;;;3.74;49.82;102940.59;5015066;28;20212;-79
2022/03/01 10:03:29;;;;;;;8.10;7.30;;;;;;;3.85;50.23;102926.50;5014034;28;20226;-78
2022/03/01 10:06:07;;;;;;;8.73;7.20;;;;;;;3.95;49.07;102933.88;5014570;28;20560;-77
2022/03/01 10:08:33;;;;;;;9.13;7.80;;;;;;;4.11;49.18;102944.97;5014061;28;20945;-78
2022/03/01 10:11:06;;;;;;;8.47;7.67;;;;;;;4.23;48.04;102979.16;5006135;28;20259;-80
2022/03/01 10:13:34;;;;;;;9.00;8.10;;;;;;;4.33;48.33;102998.59;4996228;28;20241;-79
2022/03/01 10:16:06;;;;;;;8.83;7.93;;;;;;;4.34;47.85;103008.09;4993971;28;20775;-80
2022/03/01 10:18:36;;;;;;;8.67;7.77;;;;;;;4.43;47.86;102985.28;4994905;28;20213;-79
2022/03/01 10:21:04;;;;;;;7.60;6.90;;;;;;;4.51;47.46;103006.34;4994324;28;20209;-79
2022/03/01 10:23:31;;;;;;;9.60;8.03;;;;;;;4.50;46.87;103028.75;4995881;28;20288;-78
2022/03/01 10:25:58;;;;;;;10.53;7.87;;;;;;;4.56;46.91;103038.50;4993913;28;20256;-78
2022/03/01 10:28:34;;;;;;;8.63;7.50;;;;;;;4.57;46.46;103041.13;4994773;28;20228;-78
2022/03/01 10:31:10;;;;;;;8.23;7.43;;;;;;;4.66;46.79;103043.28;4994198;28;20213;-78
2022/03/01 10:33:38;;;;;;;9.03;8.13;;;;;;;4.67;46.30;103057.09;4994142;28;20238;-78
2022/03/01 10:36:05;;;;;;;8.13;7.33;;;;;;;4.66;46.75;103027.78;4992885;28;20673;-79
2022/03/01 10:38:32;;;;;;;9.10;8.20;;;;;;;4.67;47.32;103036.41;4993745;28;20212;-78
2022/03/01 10:41:00;;;;;;;7.70;6.97;;;;;;;4.73;49.06;102998.75;5001420;28;20205;-77
2022/03/01 10:43:27;;;;;;;9.13;8.10;;;;;;;4.66;46.67;103011.34;5011441;28;20255;-80
2022/03/01 10:45:54;;;;;;;8.83;7.93;;;;;;;4.74;48.68;103025.53;5013830;28;20201;-77
2022/03/01 10:48:26;;;;;;;8.80;8.00;;;;;;;4.66;46.84;103032.94;5013095;28;20233;-78
2022/03/01 10:51:01;;;;;;;9.47;7.50;;;;;;;4.76;46.69;103035.13;5013829;28;20207;-77
2022/03/01 10:53:32;;;;;;;8.77;7.97;;;;;;;4.84;46.08;103040.69;5013360;28;20222;-77
2022/03/01 10:56:03;;;;;;;9.13;8.23;;;;;;;4.90;47.33;103048.72;5013099;28;20690;-77
2022/03/01 10:58:30;;;;;;;8.23;7.40;;;;;;;4.91;46.21;103036.66;5012593;28;20580;-77
2022/03/01 11:00:57;;;;;;;9.53;8.10;;;;;;;5.01;47.25;103006.91;5013279;28;20297;-77
2022/03/01 11:03:24;;;;;;;9.27;8.37;;;;;;;5.07;47.67;103018.41;5013204;28;20229;-78
2022/03/01 11:05:54;;;;;;;9.27;7.30;;;;;;;5.09;47.35;103006.44;5014076;28;20293;-77
2022/03/01 11:08:23;;;;;;;8.20;7.37;;;;;;;5.15;47.15;103001.56;5013674;28;20276;-78
2022/03/01 11:10:51;;;;;;;9.50;8.47;;;;;;;5.13;47.67;103000.59;5008136;28;20692;-79
2022/03/01 11:13:20;;;;;;;8.00;7.20;;;;;;;5.12;46.28;103010.88;4993233;28;20659;-79
2022/03/01 11:16:08;;;;;;;8.33;7.53;;;;;;;5.25;47.01;103020.06;4993338;28;20210;-79
2022/03/01 11:18:44;;;;;;;9.40;8.40;;;;;;;5.38;48.41;103010.31;4993581;28;20207;-77
2022/03/01 11:21:13;;;;;;;8.27;7.47;;;;;;;5.39;46.41;103047.47;4993727;28;20234;-77
2022/03/01 11:23:43;;;;;;;8.97;8.13;;;;;;;5.48;46.12;103034.94;4992931;28;20284;-76